sensor_id;sensor_type;location;lat;lon;timestamp;pressure;altitude;pressure_sealevel;temperature;humidity
69239;BME280;56349;51.816;-0.026;2023-04-04T00:00:01;102327.86;;;19.99;34.97
69239;BME280;56349;51.816;-0.026;2023-04-04T00:02:27;102328.35;;;19.93;35.03
69239;BME280;56349;51.816;-0.026;2023-04-04T00:04:53;102329.10;;;19.87;35.11
69239;BME280;56349;51.816;-0.026;2023-04-04T00:07:19;102326.25;;;19.90;35.10
69239;BME280;56349;51.816;-0.026;2023-04-04T00:09:45;102322.55;;;19.95;35.05
69239;BME280;56349;51.816;-0.026;2023-04-04T00:12:11;102319.07;;;20.18;35.05
69239;BME280;56349;51.816;-0.026;2023-04-04T00:14:37;102316.51;;;19.72;35.05
69239;BME280;56349;51.816;-0.026;2023-04-04T00:17:03;102314.56;;;19.71;35.07
69239;BME280;56349;51.816;-0.026;2023-04-04T00:19:29;102314.20;;;20.04;35.21
69239;BME280;56349;51.816;-0.026;2023-04-04T00:21:55;102312.23;;;19.90;35.38
69239;BME280;56349;51.816;-0.026;2023-04-04T00:24:21;102308.59;;;19.78;35.52
69239;BME280;56349;51.816;-0.026;2023-04-04T00:26:47;102307.54;;;19.49;35.63
69239;BME280;56349;51.816;-0.026;2023-04-04T00:29:13;102306.08;;;19.63;35.72
69239;BME280;56349;51.816;-0.026;2023-04-04T00:31:39;102305.31;;;19.84;35.80
69239;BME280;56349;51.816;-0.026;2023-04-04T00:46:11;102291.35;;;19.31;36.13
69239;BME280;56349;51.816;-0.026;2023-04-04T03:09:13;102273.14;;;17.94;37.52
69239;BME280;56349;51.816;-0.026;2023-04-04T03:11:39;102274.55;;;17.94;37.48
69239;BME280;56349;51.816;-0.026;2023-04-04T03:14:06;102272.52;;;17.95;37.46
69239;BME280;56349;51.816;-0.026;2023-04-04T03:16:31;102275.13;;;17.93;37.46
69239;BME280;56349;51.816;-0.026;2023-04-04T03:18:57;102272.46;;;17.92;37.45
69239;BME280;56349;51.816;-0.026;2023-04-04T03:21:23;102274.53;;;17.91;37.43
69239;BME280;56349;51.816;-0.026;2023-04-04T03:23:49;102276.25;;;17.89;37.43
69239;BME280;56349;51.816;-0.026;2023-04-04T03:26:15;102280.30;;;18.12;37.47
69239;BME280;56349;51.816;-0.026;2023-04-04T03:28:41;102281.13;;;17.82;37.48
69239;BME280;56349;51.816;-0.026;2023-04-04T03:31:06;102281.65;;;17.81;37.49
69239;BME280;56349;51.816;-0.026;2023-04-04T03:33:34;102282.08;;;18.30;37.57
69239;BME280;56349;51.816;-0.026;2023-04-04T03:35:58;102284.58;;;17.84;37.62
69239;BME280;56349;51.816;-0.026;2023-04-04T03:38:24;102288.77;;;17.92;37.68
69239;BME280;56349;51.816;-0.026;2023-04-04T03:43:16;102284.15;;;18.16;37.65
69239;BME280;56349;51.816;-0.026;2023-04-04T03:45:42;102283.18;;;18.32;37.44
69239;BME280;56349;51.816;-0.026;2023-04-04T03:48:09;102283.44;;;18.48;37.20
69239;BME280;56349;51.816;-0.026;2023-04-04T03:50:35;102283.60;;;18.63;36.94
69239;BME280;56349;51.816;-0.026;2023-04-04T03:52:59;102283.01;;;18.73;36.71
69239;BME280;56349;51.816;-0.026;2023-04-04T03:55:25;102284.62;;;18.57;36.54
69239;BME280;56349;51.816;-0.026;2023-04-04T03:57:51;102284.48;;;18.62;36.39
69239;BME280;56349;51.816;-0.026;2023-04-04T04:00:17;102280.45;;;18.65;36.27
69239;BME280;56349;51.816;-0.026;2023-04-04T05:10:36;102277.14;;;17.82;37.43
69239;BME280;56349;51.816;-0.026;2023-04-04T05:13:07;102276.61;;;17.96;37.20
69239;BME280;56349;51.816;-0.026;2023-04-04T05:15:27;102273.57;;;18.06;36.91
69239;BME280;56349;51.816;-0.026;2023-04-04T05:17:53;102274.07;;;18.32;36.73
69239;BME280;56349;51.816;-0.026;2023-04-04T05:20:19;102278.37;;;18.52;36.61
69239;BME280;56349;51.816;-0.026;2023-04-04T05:22:45;102277.46;;;18.67;36.55
69239;BME280;56349;51.816;-0.026;2023-04-04T05:25:11;102277.32;;;18.38;36.53
69239;BME280;56349;51.816;-0.026;2023-04-04T05:27:36;102278.17;;;18.51;36.50
69239;BME280;56349;51.816;-0.026;2023-04-04T05:30:02;102271.26;;;18.63;36.49
69239;BME280;56349;51.816;-0.026;2023-04-04T05:32:27;102274.00;;;18.72;36.49
69239;BME280;56349;51.816;-0.026;2023-04-04T05:39:44;102281.25;;;18.95;36.08
69239;BME280;56349;51.816;-0.026;2023-04-04T05:42:09;102278.80;;;19.46;36.07
69239;BME280;56349;51.816;-0.026;2023-04-04T07:21:33;102308.20;;;23.91;29.36
69239;BME280;56349;51.816;-0.026;2023-04-04T07:23:59;102306.04;;;23.78;29.16
69239;BME280;56349;51.816;-0.026;2023-04-04T07:26:25;102306.99;;;23.79;29.05
69239;BME280;56349;51.816;-0.026;2023-04-04T07:28:51;102303.25;;;23.81;28.95
69239;BME280;56349;51.816;-0.026;2023-04-04T07:31:16;102298.71;;;23.82;28.86
69239;BME280;56349;51.816;-0.026;2023-04-04T07:33:42;102296.76;;;23.83;28.78
69239;BME280;56349;51.816;-0.026;2023-04-04T07:36:08;102290.86;;;23.81;28.75
69239;BME280;56349;51.816;-0.026;2023-04-04T07:38:34;102287.28;;;24.08;28.64
69239;BME280;56349;51.816;-0.026;2023-04-04T07:41:00;102283.12;;;23.89;28.56
69239;BME280;56349;51.816;-0.026;2023-04-04T07:43:26;102278.48;;;23.63;28.46
69239;BME280;56349;51.816;-0.026;2023-04-04T07:45:53;102274.89;;;23.90;28.38
69239;BME280;56349;51.816;-0.026;2023-04-04T07:48:18;102273.18;;;23.88;28.33
69239;BME280;56349;51.816;-0.026;2023-04-04T07:50:44;102270.16;;;23.64;28.25
69239;BME280;56349;51.816;-0.026;2023-04-04T07:53:10;102269.33;;;23.91;28.16
69239;BME280;56349;51.816;-0.026;2023-04-04T07:55:35;102268.46;;;23.89;28.12
69239;BME280;56349;51.816;-0.026;2023-04-04T07:58:01;102269.53;;;23.93;28.01
69239;BME280;56349;51.816;-0.026;2023-04-04T08:00:27;102269.73;;;23.64;27.98
69239;BME280;56349;51.816;-0.026;2023-04-04T08:02:54;102272.04;;;23.89;27.93
69239;BME280;56349;51.816;-0.026;2023-04-04T08:05:19;102274.38;;;23.84;27.96
69239;BME280;56349;51.816;-0.026;2023-04-04T08:07:44;102274.27;;;23.92;27.85
69239;BME280;56349;51.816;-0.026;2023-04-04T08:10:10;102272.78;;;23.93;27.78
69239;BME280;56349;51.816;-0.026;2023-04-04T08:12:37;102270.70;;;23.97;27.77
69239;BME280;56349;51.816;-0.026;2023-04-04T08:15:02;102270.29;;;23.72;27.73
69239;BME280;56349;51.816;-0.026;2023-04-04T08:17:28;102268.27;;;23.73;27.65
69239;BME280;56349;51.816;-0.026;2023-04-04T08:19:53;102270.26;;;24.02;27.62
69239;BME280;56349;51.816;-0.026;2023-04-04T08:22:19;102270.31;;;23.99;27.76
69239;BME280;56349;51.816;-0.026;2023-04-04T08:24:45;102270.56;;;23.98;27.77
69239;BME280;56349;51.816;-0.026;2023-04-04T08:27:11;102269.00;;;23.99;27.76
69239;BME280;56349;51.816;-0.026;2023-04-04T08:29:42;102271.46;;;23.95;27.79
69239;BME280;56349;51.816;-0.026;2023-04-04T08:32:04;102274.48;;;24.20;27.77
69239;BME280;56349;51.816;-0.026;2023-04-04T08:34:28;102277.72;;;24.01;27.73
69239;BME280;56349;51.816;-0.026;2023-04-04T08:36:55;102274.72;;;23.72;27.81
69239;BME280;56349;51.816;-0.026;2023-04-04T08:39:20;102274.30;;;24.01;27.79
69239;BME280;56349;51.816;-0.026;2023-04-04T08:41:46;102271.31;;;24.00;27.75
69239;BME280;56349;51.816;-0.026;2023-04-04T08:44:15;102267.54;;;23.98;27.77
69239;BME280;56349;51.816;-0.026;2023-04-04T08:46:37;102265.18;;;23.93;27.76
69239;BME280;56349;51.816;-0.026;2023-04-04T08:49:03;102262.95;;;23.78;27.74
69239;BME280;56349;51.816;-0.026;2023-04-04T08:51:29;102255.78;;;23.57;27.83
69239;BME280;56349;51.816;-0.026;2023-04-04T08:53:54;102252.58;;;23.61;27.91
69239;BME280;56349;51.816;-0.026;2023-04-04T08:56:19;102254.60;;;23.59;27.99
69239;BME280;56349;51.816;-0.026;2023-04-04T08:58:45;102253.37;;;23.38;28.11
69239;BME280;56349;51.816;-0.026;2023-04-04T09:01:11;102253.34;;;23.13;28.23
69239;BME280;56349;51.816;-0.026;2023-04-04T09:03:37;102255.47;;;22.87;28.37
69239;BME280;56349;51.816;-0.026;2023-04-04T09:06:03;102257.63;;;22.62;28.51
69239;BME280;56349;51.816;-0.026;2023-04-04T09:08:29;102260.54;;;22.63;28.64
69239;BME280;56349;51.816;-0.026;2023-04-04T09:10:54;102263.08;;;22.35;28.82
69239;BME280;56349;51.816;-0.026;2023-04-04T09:13:19;102259.68;;;22.31;29.01
69239;BME280;56349;51.816;-0.026;2023-04-04T09:15:46;102254.17;;;22.05;29.35
69239;BME280;56349;51.816;-0.026;2023-04-04T09:18:10;102252.30;;;21.82;29.44
69239;BME280;56349;51.816;-0.026;2023-04-04T09:20:38;102252.07;;;21.59;29.64
69239;BME280;56349;51.816;-0.026;2023-04-04T09:23:04;102252.63;;;21.67;29.95
69239;BME280;56349;51.816;-0.026;2023-04-04T09:25:27;102250.82;;;21.47;30.21
69239;BME280;56349;51.816;-0.026;2023-04-04T09:27:53;102253.53;;;21.51;30.30
69239;BME280;56349;51.816;-0.026;2023-04-04T09:30:19;102252.94;;;21.08;30.44
69239;BME280;56349;51.816;-0.026;2023-04-04T09:32:44;102251.66;;;20.90;30.65
69239;BME280;56349;51.816;-0.026;2023-04-04T09:35:11;102246.69;;;20.93;30.86
69239;BME280;56349;51.816;-0.026;2023-04-04T09:37:36;102254.80;;;20.97;31.08
69239;BME280;56349;51.816;-0.026;2023-04-04T09:40:03;102254.93;;;20.82;31.26
69239;BME280;56349;51.816;-0.026;2023-04-04T09:42:27;102258.71;;;20.68;31.43
69239;BME280;56349;51.816;-0.026;2023-04-04T09:44:53;102253.22;;;20.31;31.64
69239;BME280;56349;51.816;-0.026;2023-04-04T09:47:23;102249.30;;;20.65;31.77
69239;BME280;56349;51.816;-0.026;2023-04-04T09:49:45;102252.08;;;20.52;32.08
69239;BME280;56349;51.816;-0.026;2023-04-04T09:52:16;102247.29;;;20.37;32.17
69239;BME280;56349;51.816;-0.026;2023-04-04T09:54:36;102251.77;;;20.45;32.24
69239;BME280;56349;51.816;-0.026;2023-04-04T09:57:02;102249.92;;;20.08;32.34
69239;BME280;56349;51.816;-0.026;2023-04-04T09:59:28;102247.06;;;19.95;32.46
69239;BME280;56349;51.816;-0.026;2023-04-04T10:01:54;102250.67;;;19.82;32.57
69239;BME280;56349;51.816;-0.026;2023-04-04T10:04:20;102253.01;;;19.71;32.67
69239;BME280;56349;51.816;-0.026;2023-04-04T10:06:46;102252.21;;;19.82;32.79
69239;BME280;56349;51.816;-0.026;2023-04-04T10:09:12;102245.36;;;19.49;32.89
69239;BME280;56349;51.816;-0.026;2023-04-04T10:11:37;102240.74;;;19.83;33.00
69239;BME280;56349;51.816;-0.026;2023-04-04T10:14:03;102240.04;;;19.72;33.11
69239;BME280;56349;51.816;-0.026;2023-04-04T10:16:31;102237.42;;;19.63;33.22
69239;BME280;56349;51.816;-0.026;2023-04-04T10:18:53;102230.99;;;19.12;33.31
69239;BME280;56349;51.816;-0.026;2023-04-04T10:21:20;102231.81;;;19.49;33.37
69239;BME280;56349;51.816;-0.026;2023-04-04T10:23:46;102234.18;;;19.39;33.49
69239;BME280;56349;51.816;-0.026;2023-04-04T10:26:12;102230.37;;;19.31;33.59
69239;BME280;56349;51.816;-0.026;2023-04-04T10:28:37;102228.68;;;19.24;33.67
69239;BME280;56349;51.816;-0.026;2023-04-04T10:31:08;102225.67;;;19.66;33.76
69239;BME280;56349;51.816;-0.026;2023-04-04T10:33:35;102223.57;;;19.11;33.85
69239;BME280;56349;51.816;-0.026;2023-04-04T10:36:00;102223.94;;;19.30;33.95
69239;BME280;56349;51.816;-0.026;2023-04-04T10:38:27;102213.22;;;18.99;33.99
69239;BME280;56349;51.816;-0.026;2023-04-04T10:40:48;102205.31;;;18.90;34.10
69239;BME280;56349;51.816;-0.026;2023-04-04T10:43:13;102204.04;;;19.10;34.21
69239;BME280;56349;51.816;-0.026;2023-04-04T10:45:39;102204.32;;;18.77;34.27
69239;BME280;56349;51.816;-0.026;2023-04-04T10:48:03;102195.90;;;18.97;34.34
69239;BME280;56349;51.816;-0.026;2023-04-04T10:50:29;102194.12;;;18.68;34.39
69239;BME280;56349;51.816;-0.026;2023-04-04T10:52:55;102189.00;;;18.63;34.46
69239;BME280;56349;51.816;-0.026;2023-04-04T10:55:22;102182.31;;;18.84;34.56
69239;BME280;56349;51.816;-0.026;2023-04-04T10:57:47;102177.28;;;18.78;34.63
69239;BME280;56349;51.816;-0.026;2023-04-04T11:00:13;102172.70;;;18.73;34.68
69239;BME280;56349;51.816;-0.026;2023-04-04T11:02:43;102171.71;;;18.91;34.74
69239;BME280;56349;51.816;-0.026;2023-04-04T11:05:09;102170.70;;;18.88;34.81
69239;BME280;56349;51.816;-0.026;2023-04-04T11:07:30;102175.54;;;18.63;34.86
69239;BME280;56349;51.816;-0.026;2023-04-04T11:09:55;102176.55;;;18.34;34.90
69239;BME280;56349;51.816;-0.026;2023-04-04T11:14:53;102177.87;;;18.55;35.00
69239;BME280;56349;51.816;-0.026;2023-04-04T11:17:11;102180.82;;;18.78;35.01
69239;BME280;56349;51.816;-0.026;2023-04-04T11:19:39;102182.92;;;18.54;35.04
69239;BME280;56349;51.816;-0.026;2023-04-04T11:22:02;102190.10;;;18.72;35.10
69239;BME280;56349;51.816;-0.026;2023-04-04T11:24:28;102191.57;;;18.69;35.16
69239;BME280;56349;51.816;-0.026;2023-04-04T11:26:59;102194.82;;;18.67;35.21
69239;BME280;56349;51.816;-0.026;2023-04-04T11:29:48;102189.48;;;18.16;35.26
69239;BME280;56349;51.816;-0.026;2023-04-04T11:31:48;102186.43;;;18.63;35.27
69239;BME280;56349;51.816;-0.026;2023-04-04T11:34:12;102184.75;;;18.39;35.32
69239;BME280;56349;51.816;-0.026;2023-04-04T11:39:04;102186.83;;;18.58;35.40
69239;BME280;56349;51.816;-0.026;2023-04-04T11:43:54;102190.31;;;18.54;35.48
69239;BME280;56349;51.816;-0.026;2023-04-04T11:46:20;102183.92;;;18.51;35.51
69239;BME280;56349;51.816;-0.026;2023-04-04T11:48:46;102182.64;;;18.48;35.55
69239;BME280;56349;51.816;-0.026;2023-04-04T11:51:13;102179.92;;;18.48;35.58
69239;BME280;56349;51.816;-0.026;2023-04-04T11:53:41;102175.80;;;18.48;35.60
69239;BME280;56349;51.816;-0.026;2023-04-04T11:56:04;102170.61;;;18.46;35.63
69239;BME280;56349;51.816;-0.026;2023-04-04T11:58:34;102174.61;;;18.46;35.65
69239;BME280;56349;51.816;-0.026;2023-04-04T12:00:55;102176.35;;;18.25;35.66
69239;BME280;56349;51.816;-0.026;2023-04-04T12:03:21;102175.19;;;18.47;35.68
69239;BME280;56349;51.816;-0.026;2023-04-04T12:05:45;102177.80;;;18.46;35.72
69239;BME280;56349;51.816;-0.026;2023-04-04T12:08:13;102174.88;;;18.23;35.73
69239;BME280;56349;51.816;-0.026;2023-04-04T12:10:38;102169.20;;;18.45;35.74
69239;BME280;56349;51.816;-0.026;2023-04-04T12:13:05;102173.28;;;18.24;35.75
69239;BME280;56349;51.816;-0.026;2023-04-04T12:15:28;102169.70;;;18.46;35.74
69239;BME280;56349;51.816;-0.026;2023-04-04T12:17:53;102168.94;;;18.46;35.77
69239;BME280;56349;51.816;-0.026;2023-04-04T12:20:21;102164.49;;;18.47;35.77
69239;BME280;56349;51.816;-0.026;2023-04-04T12:22:47;102164.88;;;18.46;35.80
69239;BME280;56349;51.816;-0.026;2023-04-04T12:25:10;102164.38;;;18.24;35.81
69239;BME280;56349;51.816;-0.026;2023-04-04T12:27:36;102161.74;;;18.46;35.82
69239;BME280;56349;51.816;-0.026;2023-04-04T12:30:03;102152.64;;;18.48;35.84
69239;BME280;56349;51.816;-0.026;2023-04-04T12:32:28;102151.75;;;18.51;35.90
69239;BME280;56349;51.816;-0.026;2023-04-04T12:34:59;102148.47;;;18.57;35.97
69239;BME280;56349;51.816;-0.026;2023-04-04T12:37:21;102146.20;;;18.43;35.99
69239;BME280;56349;51.816;-0.026;2023-04-04T12:39:46;102144.17;;;18.80;35.95
69239;BME280;56349;51.816;-0.026;2023-04-04T12:42:08;102144.70;;;18.98;35.86
69239;BME280;56349;51.816;-0.026;2023-04-04T12:44:35;102143.93;;;18.94;35.76
69239;BME280;56349;51.816;-0.026;2023-04-04T12:47:02;102145.04;;;18.89;35.61
69239;BME280;56349;51.816;-0.026;2023-04-04T12:49:28;102148.59;;;19.14;35.44
69239;BME280;56349;51.816;-0.026;2023-04-04T12:51:52;102146.76;;;19.16;35.23
69239;BME280;56349;51.816;-0.026;2023-04-04T12:54:24;102147.28;;;19.65;35.01
69239;BME280;56349;51.816;-0.026;2023-04-04T12:56:43;102146.06;;;19.69;34.76
69239;BME280;56349;51.816;-0.026;2023-04-04T12:59:09;102141.23;;;19.96;34.50
69239;BME280;56349;51.816;-0.026;2023-04-04T13:01:36;102137.18;;;20.02;34.20
69239;BME280;56349;51.816;-0.026;2023-04-04T13:04:02;102131.56;;;20.30;33.91
69239;BME280;56349;51.816;-0.026;2023-04-04T13:06:27;102122.09;;;20.29;33.63
69239;BME280;56349;51.816;-0.026;2023-04-04T13:08:51;102119.06;;;20.55;33.34
69239;BME280;56349;51.816;-0.026;2023-04-04T13:11:16;102113.98;;;20.60;33.05
69239;BME280;56349;51.816;-0.026;2023-04-04T13:13:42;102110.93;;;20.82;32.81
69239;BME280;56349;51.816;-0.026;2023-04-04T13:16:09;102111.51;;;21.30;32.52
69239;BME280;56349;51.816;-0.026;2023-04-04T13:18:36;102110.09;;;21.08;32.24
69239;BME280;56349;51.816;-0.026;2023-04-04T13:20:59;102108.24;;;21.51;31.97
69239;BME280;56349;51.816;-0.026;2023-04-04T13:23:25;102099.21;;;21.66;31.72
69239;BME280;56349;51.816;-0.026;2023-04-04T13:25:51;102098.12;;;21.56;31.52
69239;BME280;56349;51.816;-0.026;2023-04-04T13:28:17;102093.55;;;21.84;31.34
69239;BME280;56349;51.816;-0.026;2023-04-04T13:30:43;102089.43;;;21.64;31.23
69239;BME280;56349;51.816;-0.026;2023-04-04T13:33:09;102086.59;;;21.60;31.15
69239;BME280;56349;51.816;-0.026;2023-04-04T13:35:35;102082.86;;;21.76;31.11
69239;BME280;56349;51.816;-0.026;2023-04-04T13:38:01;102077.33;;;21.49;31.08
69239;BME280;56349;51.816;-0.026;2023-04-04T13:40:27;102073.96;;;21.66;31.07
69239;BME280;56349;51.816;-0.026;2023-04-04T13:42:53;102072.14;;;21.56;31.10
69239;BME280;56349;51.816;-0.026;2023-04-04T13:45:18;102077.44;;;21.46;31.16
69239;BME280;56349;51.816;-0.026;2023-04-04T13:47:43;102078.42;;;21.37;31.20
69239;BME280;56349;51.816;-0.026;2023-04-04T13:50:09;102077.85;;;21.25;31.28
69239;BME280;56349;51.816;-0.026;2023-04-04T13:52:34;102079.50;;;21.13;31.39
69239;BME280;56349;51.816;-0.026;2023-04-04T13:55:00;102075.50;;;21.27;31.48
69239;BME280;56349;51.816;-0.026;2023-04-04T13:57:26;102069.75;;;20.99;31.46
69239;BME280;56349;51.816;-0.026;2023-04-04T13:59:52;102063.08;;;21.17;31.58
69239;BME280;56349;51.816;-0.026;2023-04-04T14:02:17;102060.00;;;20.94;31.76
69239;BME280;56349;51.816;-0.026;2023-04-04T14:04:43;102056.83;;;20.98;31.86
69239;BME280;56349;51.816;-0.026;2023-04-04T14:07:09;102048.84;;;21.41;31.78
69239;BME280;56349;51.816;-0.026;2023-04-04T14:09:35;102046.57;;;21.72;31.52
69239;BME280;56349;51.816;-0.026;2023-04-04T14:12:01;102048.44;;;21.80;31.23
69239;BME280;56349;51.816;-0.026;2023-04-04T14:14:27;102047.77;;;22.02;30.85
69239;BME280;56349;51.816;-0.026;2023-04-04T14:16:53;102044.43;;;22.04;30.58
69239;BME280;56349;51.816;-0.026;2023-04-04T14:19:19;102043.22;;;22.52;30.28
69239;BME280;56349;51.816;-0.026;2023-04-04T14:21:45;102037.92;;;22.77;29.92
69239;BME280;56349;51.816;-0.026;2023-04-04T14:24:10;102037.33;;;23.21;29.51
69239;BME280;56349;51.816;-0.026;2023-04-04T14:26:36;102038.43;;;23.98;28.87
69239;BME280;56349;51.816;-0.026;2023-04-04T14:29:02;102034.41;;;24.49;28.21
69239;BME280;56349;51.816;-0.026;2023-04-04T14:31:28;102030.40;;;25.21;27.58
69239;BME280;56349;51.816;-0.026;2023-04-04T14:33:54;102024.66;;;25.31;27.10
69239;BME280;56349;51.816;-0.026;2023-04-04T14:36:20;102026.89;;;26.08;26.73
69239;BME280;56349;51.816;-0.026;2023-04-04T14:38:46;102023.70;;;25.81;26.58
69239;BME280;56349;51.816;-0.026;2023-04-04T14:41:12;102015.31;;;25.94;26.61
69239;BME280;56349;51.816;-0.026;2023-04-04T14:43:38;102015.96;;;25.83;26.67
69239;BME280;56349;51.816;-0.026;2023-04-04T14:46:04;102013.47;;;25.36;26.64
69239;BME280;56349;51.816;-0.026;2023-04-04T14:48:30;102008.59;;;25.30;26.56
69239;BME280;56349;51.816;-0.026;2023-04-04T14:50:56;102000.41;;;25.04;26.70
69239;BME280;56349;51.816;-0.026;2023-04-04T14:53:21;101998.30;;;24.51;27.02
69239;BME280;56349;51.816;-0.026;2023-04-04T14:55:47;101988.88;;;23.98;27.44
69239;BME280;56349;51.816;-0.026;2023-04-04T14:58:13;101987.62;;;23.52;27.25
69239;BME280;56349;51.816;-0.026;2023-04-04T15:00:39;101989.09;;;23.20;27.70
69239;BME280;56349;51.816;-0.026;2023-04-04T15:03:04;101987.08;;;23.35;28.02
69239;BME280;56349;51.816;-0.026;2023-04-04T15:05:31;101980.38;;;22.93;28.36
69239;BME280;56349;51.816;-0.026;2023-04-04T15:07:56;101984.20;;;23.01;28.51
69239;BME280;56349;51.816;-0.026;2023-04-04T15:10:22;101977.86;;;22.66;28.67
69239;BME280;56349;51.816;-0.026;2023-04-04T15:12:48;101975.20;;;22.78;28.73
69239;BME280;56349;51.816;-0.026;2023-04-04T15:15:15;101971.22;;;22.49;28.91
69239;BME280;56349;51.816;-0.026;2023-04-04T15:56:29;101932.39;;;23.93;25.24
69239;BME280;56349;51.816;-0.026;2023-04-04T15:58:55;101931.96;;;24.02;25.25
69239;BME280;56349;51.816;-0.026;2023-04-04T16:01:21;101934.42;;;23.89;25.17
69239;BME280;56349;51.816;-0.026;2023-04-04T16:35:18;101898.45;;;24.37;25.03
69239;BME280;56349;51.816;-0.026;2023-04-04T16:37:42;101895.17;;;24.38;24.95
69239;BME280;56349;51.816;-0.026;2023-04-04T16:40:09;101895.61;;;24.36;25.11
69239;BME280;56349;51.816;-0.026;2023-04-04T16:42:34;101896.85;;;24.38;25.22
69239;BME280;56349;51.816;-0.026;2023-04-04T16:44:59;101897.02;;;24.59;25.34
69239;BME280;56349;51.816;-0.026;2023-04-04T16:47:25;101897.01;;;24.45;25.37
69239;BME280;56349;51.816;-0.026;2023-04-04T16:52:17;101901.19;;;24.98;25.53
69239;BME280;56349;51.816;-0.026;2023-04-04T17:21:24;101892.54;;;25.46;26.23
69239;BME280;56349;51.816;-0.026;2023-04-04T17:31:06;101894.85;;;25.36;26.66
69239;BME280;56349;51.816;-0.026;2023-04-04T17:33:31;101895.55;;;25.40;26.71
69239;BME280;56349;51.816;-0.026;2023-04-04T17:35:57;101894.88;;;25.58;26.75
69239;BME280;56349;51.816;-0.026;2023-04-04T17:38:23;101901.54;;;25.38;26.77
69239;BME280;56349;51.816;-0.026;2023-04-04T17:40:49;101902.63;;;25.38;26.79
69239;BME280;56349;51.816;-0.026;2023-04-04T17:43:13;101899.62;;;25.11;26.79
69239;BME280;56349;51.816;-0.026;2023-04-04T17:45:41;101899.98;;;25.64;26.78
69239;BME280;56349;51.816;-0.026;2023-04-04T17:48:04;101895.21;;;25.42;26.76
69239;BME280;56349;51.816;-0.026;2023-04-04T17:50:30;101896.57;;;25.12;26.77
69239;BME280;56349;51.816;-0.026;2023-04-04T17:52:56;101896.38;;;25.66;26.73
69239;BME280;56349;51.816;-0.026;2023-04-04T17:55:23;101896.22;;;25.45;26.74
69239;BME280;56349;51.816;-0.026;2023-04-04T17:57:48;101895.86;;;25.41;26.77
69239;BME280;56349;51.816;-0.026;2023-04-04T18:00:15;101894.44;;;25.33;26.87
69239;BME280;56349;51.816;-0.026;2023-04-04T18:02:40;101896.30;;;25.00;26.88
69239;BME280;56349;51.816;-0.026;2023-04-04T18:05:08;101899.40;;;25.52;26.89
69239;BME280;56349;51.816;-0.026;2023-04-04T18:07:32;101899.01;;;25.11;26.79
69239;BME280;56349;51.816;-0.026;2023-04-04T18:09:58;101899.44;;;25.32;26.84
69239;BME280;56349;51.816;-0.026;2023-04-04T18:12:24;101897.81;;;25.33;26.83
69239;BME280;56349;51.816;-0.026;2023-04-04T18:14:50;101894.28;;;25.50;26.83
69239;BME280;56349;51.816;-0.026;2023-04-04T18:17:16;101891.54;;;25.22;26.91
69239;BME280;56349;51.816;-0.026;2023-04-04T18:19:42;101890.75;;;25.42;26.88
69239;BME280;56349;51.816;-0.026;2023-04-04T18:22:08;101892.39;;;25.19;26.74
69239;BME280;56349;51.816;-0.026;2023-04-04T18:24:34;101893.18;;;25.15;26.76
69239;BME280;56349;51.816;-0.026;2023-04-04T18:27:00;101896.41;;;25.38;26.81
69239;BME280;56349;51.816;-0.026;2023-04-04T18:29:26;101894.57;;;25.39;26.88
69239;BME280;56349;51.816;-0.026;2023-04-04T18:31:52;101899.18;;;24.90;26.97
69239;BME280;56349;51.816;-0.026;2023-04-04T18:34:17;101899.87;;;25.40;27.03
69239;BME280;56349;51.816;-0.026;2023-04-04T18:36:43;101895.19;;;25.23;27.05
69239;BME280;56349;51.816;-0.026;2023-04-04T18:39:09;101894.42;;;25.07;27.02
69239;BME280;56349;51.816;-0.026;2023-04-04T18:41:36;101898.13;;;25.16;26.99
69239;BME280;56349;51.816;-0.026;2023-04-04T18:44:00;101900.13;;;25.74;26.81
69239;BME280;56349;51.816;-0.026;2023-04-04T18:46:26;101901.69;;;25.61;26.79
69239;BME280;56349;51.816;-0.026;2023-04-04T18:48:53;101896.22;;;25.40;26.80
69239;BME280;56349;51.816;-0.026;2023-04-04T18:51:18;101890.29;;;25.79;26.79
69239;BME280;56349;51.816;-0.026;2023-04-04T18:53:44;101893.27;;;25.89;26.83
69239;BME280;56349;51.816;-0.026;2023-04-04T18:56:10;101895.25;;;25.98;26.83
69239;BME280;56349;51.816;-0.026;2023-04-04T18:58:36;101897.67;;;25.81;26.85
69239;BME280;56349;51.816;-0.026;2023-04-04T19:01:02;101898.26;;;25.92;26.85
69239;BME280;56349;51.816;-0.026;2023-04-04T19:03:27;101902.61;;;26.07;26.83
69239;BME280;56349;51.816;-0.026;2023-04-04T19:05:53;101910.93;;;26.18;26.83
69239;BME280;56349;51.816;-0.026;2023-04-04T19:08:18;101915.87;;;26.29;26.81
69239;BME280;56349;51.816;-0.026;2023-04-04T19:10:46;101919.12;;;26.36;26.80
69239;BME280;56349;51.816;-0.026;2023-04-04T19:13:10;101920.73;;;26.50;26.77
69239;BME280;56349;51.816;-0.026;2023-04-04T19:15:36;101921.04;;;26.57;26.78
69239;BME280;56349;51.816;-0.026;2023-04-04T19:18:01;101919.06;;;26.65;26.44
69239;BME280;56349;51.816;-0.026;2023-04-04T19:20:27;101918.61;;;26.62;26.41
69239;BME280;56349;51.816;-0.026;2023-04-04T19:22:53;101916.85;;;26.66;26.62
69239;BME280;56349;51.816;-0.026;2023-04-04T19:25:19;101915.48;;;26.70;26.69
69239;BME280;56349;51.816;-0.026;2023-04-04T19:27:45;101918.43;;;26.77;26.74
69239;BME280;56349;51.816;-0.026;2023-04-04T19:32:37;101918.86;;;26.92;26.74
69239;BME280;56349;51.816;-0.026;2023-04-04T19:37:29;101915.31;;;26.57;26.73
69239;BME280;56349;51.816;-0.026;2023-04-04T19:39:53;101915.03;;;26.89;26.72
69239;BME280;56349;51.816;-0.026;2023-04-04T19:42:25;101913.78;;;26.91;26.40
69239;BME280;56349;51.816;-0.026;2023-04-04T19:44:45;101912.35;;;26.68;26.55
69239;BME280;56349;51.816;-0.026;2023-04-04T19:47:13;101909.64;;;26.95;26.61
69239;BME280;56349;51.816;-0.026;2023-04-04T19:49:36;101916.63;;;27.21;26.43
69239;BME280;56349;51.816;-0.026;2023-04-04T19:52:02;101921.70;;;27.21;26.55
69239;BME280;56349;51.816;-0.026;2023-04-04T19:54:31;101927.22;;;26.98;26.59